sensor_id;sensor_type;location;lat;lon;timestamp;pressure;altitude;pressure_sealevel;temperature;humidity
13080;BME280;6606;49.154;9.280;2023-06-10T00:01:44;99213.41;;;16.89;100.00
13080;BME280;6606;49.154;9.280;2023-06-10T00:04:28;99219.97;;;16.85;100.00
13080;BME280;6606;49.154;9.280;2023-06-10T00:07:11;99211.88;;;16.75;100.00
13080;BME280;6606;49.154;9.280;2023-06-10T00:09:53;99213.91;;;16.71;100.00
13080;BME280;6606;49.154;9.280;2023-06-10T00:12:35;99220.06;;;16.62;100.00
13080;BME280;6606;49.154;9.280;2023-06-10T00:15:19;99215.91;;;16.58;100.00
13080;BME280;6606;49.154;9.280;2023-06-10T00:18:00;99214.59;;;16.53;100.00
13080;BME280;6606;49.154;9.280;2023-06-10T00:20:44;99216.69;;;16.49;100.00
13080;BME280;6606;49.154;9.280;2023-06-10T00:23:29;99220.72;;;16.43;100.00
13080;BME280;6606;49.154;9.280;2023-06-10T00:26:12;99218.41;;;16.39;100.00
13080;BME280;6606;49.154;9.280;2023-06-10T00:28:54;99215.38;;;16.32;100.00
13080;BME280;6606;49.154;9.280;2023-06-10T00:31:37;99212.84;;;16.31;100.00
13080;BME280;6606;49.154;9.280;2023-06-10T00:34:20;99221.34;;;16.24;100.00
13080;BME280;6606;49.154;9.280;2023-06-10T00:37:04;99221.59;;;16.21;100.00
13080;BME280;6606;49.154;9.280;2023-06-10T00:39:45;99218.44;;;16.16;100.00
13080;BME280;6606;49.154;9.280;2023-06-10T00:42:27;99220.63;;;16.11;100.00
13080;BME280;6606;49.154;9.280;2023-06-10T00:45:09;99226.47;;;16.05;100.00
13080;BME280;6606;49.154;9.280;2023-06-10T00:47:51;99219.44;;;16.04;100.00
13080;BME280;6606;49.154;9.280;2023-06-10T00:50:32;99232.34;;;15.99;100.00
13080;BME280;6606;49.154;9.280;2023-06-10T00:53:16;99225.75;;;15.92;100.00
13080;BME280;6606;49.154;9.280;2023-06-10T00:55:58;99219.09;;;15.86;100.00
13080;BME280;6606;49.154;9.280;2023-06-10T00:58:40;99221.38;;;15.79;100.00
13080;BME280;6606;49.154;9.280;2023-06-10T01:01:22;99221.38;;;15.79;100.00
13080;BME280;6606;49.154;9.280;2023-06-10T01:04:04;99219.69;;;15.78;100.00
13080;BME280;6606;49.154;9.280;2023-06-10T01:06:53;99229.16;;;15.71;100.00
13080;BME280;6606;49.154;9.280;2023-06-10T01:09:43;99225.97;;;15.66;100.00
13080;BME280;6606;49.154;9.280;2023-06-10T01:12:31;99230.59;;;15.64;100.00
13080;BME280;6606;49.154;9.280;2023-06-10T01:15:15;99231.31;;;15.55;100.00
13080;BME280;6606;49.154;9.280;2023-06-10T01:18:01;99230.56;;;15.53;100.00
13080;BME280;6606;49.154;9.280;2023-06-10T01:20:44;99229.13;;;15.49;100.00
13080;BME280;6606;49.154;9.280;2023-06-10T01:23:28;99239.56;;;15.41;100.00
13080;BME280;6606;49.154;9.280;2023-06-10T01:26:11;99231.53;;;15.41;100.00
13080;BME280;6606;49.154;9.280;2023-06-10T01:28:58;99249.50;;;15.38;100.00
13080;BME280;6606;49.154;9.280;2023-06-10T01:31:42;99248.50;;;15.39;100.00
13080;BME280;6606;49.154;9.280;2023-06-10T01:34:27;99244.16;;;15.38;100.00
13080;BME280;6606;49.154;9.280;2023-06-10T01:37:13;99241.09;;;15.32;100.00
13080;BME280;6606;49.154;9.280;2023-06-10T01:39:58;99251.91;;;15.30;100.00
13080;BME280;6606;49.154;9.280;2023-06-10T01:42:40;99250.19;;;15.29;100.00
13080;BME280;6606;49.154;9.280;2023-06-10T01:45:22;99249.56;;;15.26;100.00
13080;BME280;6606;49.154;9.280;2023-06-10T01:48:04;99253.47;;;15.22;100.00
13080;BME280;6606;49.154;9.280;2023-06-10T01:50:46;99252.97;;;15.16;100.00
13080;BME280;6606;49.154;9.280;2023-06-10T01:53:27;99249.03;;;15.09;100.00
13080;BME280;6606;49.154;9.280;2023-06-10T01:56:11;99256.72;;;15.14;100.00
13080;BME280;6606;49.154;9.280;2023-06-10T01:58:57;99255.22;;;15.10;100.00
13080;BME280;6606;49.154;9.280;2023-06-10T02:01:39;99257.91;;;15.10;100.00
13080;BME280;6606;49.154;9.280;2023-06-10T02:04:21;99253.78;;;15.06;100.00
13080;BME280;6606;49.154;9.280;2023-06-10T02:07:03;99254.50;;;15.08;100.00
13080;BME280;6606;49.154;9.280;2023-06-10T02:09:46;99260.91;;;15.05;100.00
13080;BME280;6606;49.154;9.280;2023-06-10T02:12:29;99262.34;;;14.98;100.00
13080;BME280;6606;49.154;9.280;2023-06-10T02:15:11;99268.59;;;14.86;100.00
13080;BME280;6606;49.154;9.280;2023-06-10T02:17:54;99274.34;;;14.92;100.00
13080;BME280;6606;49.154;9.280;2023-06-10T02:20:36;99273.13;;;14.97;100.00
13080;BME280;6606;49.154;9.280;2023-06-10T02:23:18;99267.19;;;14.93;100.00
13080;BME280;6606;49.154;9.280;2023-06-10T02:25:59;99267.28;;;14.91;100.00
13080;BME280;6606;49.154;9.280;2023-06-10T02:28:44;99270.94;;;14.90;100.00
13080;BME280;6606;49.154;9.280;2023-06-10T02:31:26;99259.28;;;14.91;100.00
13080;BME280;6606;49.154;9.280;2023-06-10T02:34:09;99267.28;;;14.91;100.00
13080;BME280;6606;49.154;9.280;2023-06-10T02:36:51;99268.38;;;14.89;100.00
13080;BME280;6606;49.154;9.280;2023-06-10T02:39:34;99267.53;;;14.88;100.00
13080;BME280;6606;49.154;9.280;2023-06-10T02:42:20;99265.84;;;14.87;100.00
13080;BME280;6606;49.154;9.280;2023-06-10T02:45:05;99268.84;;;14.83;100.00
13080;BME280;6606;49.154;9.280;2023-06-10T02:47:53;99272.59;;;14.80;100.00
13080;BME280;6606;49.154;9.280;2023-06-10T02:50:35;99276.44;;;14.76;100.00
13080;BME280;6606;49.154;9.280;2023-06-10T02:53:36;99274.75;;;14.75;100.00
13080;BME280;6606;49.154;9.280;2023-06-10T02:56:22;99276.16;;;14.68;100.00
13080;BME280;6606;49.154;9.280;2023-06-10T02:59:04;99277.88;;;14.69;100.00
13080;BME280;6606;49.154;9.280;2023-06-10T03:01:50;99274.44;;;14.67;100.00
13080;BME280;6606;49.154;9.280;2023-06-10T03:04:31;99279.03;;;14.65;100.00
13080;BME280;6606;49.154;9.280;2023-06-10T03:07:19;99279.56;;;14.70;100.00
13080;BME280;6606;49.154;9.280;2023-06-10T03:10:01;99281.47;;;14.68;100.00
13080;BME280;6606;49.154;9.280;2023-06-10T03:12:43;99278.72;;;14.69;100.00
13080;BME280;6606;49.154;9.280;2023-06-10T03:15:26;99281.47;;;14.68;100.00
13080;BME280;6606;49.154;9.280;2023-06-10T03:18:13;99279.78;;;14.67;100.00
13080;BME280;6606;49.154;9.280;2023-06-10T03:20:58;99276.03;;;14.69;100.00
13080;BME280;6606;49.154;9.280;2023-06-10T03:23:41;99275.63;;;14.63;100.00
13080;BME280;6606;49.154;9.280;2023-06-10T03:26:22;99273.84;;;14.63;100.00
13080;BME280;6606;49.154;9.280;2023-06-10T03:29:06;99284.88;;;14.70;100.00
13080;BME280;6606;49.154;9.280;2023-06-10T03:31:48;99290.75;;;14.75;100.00
13080;BME280;6606;49.154;9.280;2023-06-10T03:34:31;99285.19;;;14.78;100.00
13080;BME280;6606;49.154;9.280;2023-06-10T03:37:14;99295.28;;;14.86;100.00
13080;BME280;6606;49.154;9.280;2023-06-10T03:39:57;99294.22;;;14.88;100.00
13080;BME280;6606;49.154;9.280;2023-06-10T03:42:39;99295.69;;;14.92;100.00
13080;BME280;6606;49.154;9.280;2023-06-10T03:45:22;99301.41;;;14.99;100.00
13080;BME280;6606;49.154;9.280;2023-06-10T03:48:05;99296.06;;;14.99;100.00
13080;BME280;6606;49.154;9.280;2023-06-10T03:51:01;99301.94;;;15.04;100.00
13080;BME280;6606;49.154;9.280;2023-06-10T03:53:43;99292.84;;;15.07;100.00
13080;BME280;6606;49.154;9.280;2023-06-10T03:56:25;99303.75;;;15.04;100.00
13080;BME280;6606;49.154;9.280;2023-06-10T03:59:07;99303.03;;;15.13;100.00
13080;BME280;6606;49.154;9.280;2023-06-10T04:01:49;99307.06;;;15.18;100.00
13080;BME280;6606;49.154;9.280;2023-06-10T04:04:31;99307.94;;;15.19;100.00
13080;BME280;6606;49.154;9.280;2023-06-10T04:07:14;99303.31;;;15.21;100.00
13080;BME280;6606;49.154;9.280;2023-06-10T04:09:56;99303.81;;;15.26;100.00
13080;BME280;6606;49.154;9.280;2023-06-10T04:12:38;99302.88;;;15.27;100.00
13080;BME280;6606;49.154;9.280;2023-06-10T04:15:20;99306.50;;;15.26;100.00
13080;BME280;6606;49.154;9.280;2023-06-10T04:18:02;99297.78;;;15.35;100.00
13080;BME280;6606;49.154;9.280;2023-06-10T04:20:44;99298.81;;;15.46;100.00
13080;BME280;6606;49.154;9.280;2023-06-10T04:23:28;99305.34;;;15.53;100.00
13080;BME280;6606;49.154;9.280;2023-06-10T04:26:10;99311.09;;;15.59;100.00
13080;BME280;6606;49.154;9.280;2023-06-10T04:28:52;99309.16;;;15.61;100.00
13080;BME280;6606;49.154;9.280;2023-06-10T04:31:34;99316.78;;;15.66;100.00
13080;BME280;6606;49.154;9.280;2023-06-10T04:34:16;99313.94;;;15.69;100.00
13080;BME280;6606;49.154;9.280;2023-06-10T04:36:58;99319.16;;;15.82;100.00
13080;BME280;6606;49.154;9.280;2023-06-10T04:39:41;99325.63;;;15.91;100.00
13080;BME280;6606;49.154;9.280;2023-06-10T04:42:22;99326.00;;;15.97;100.00
13080;BME280;6606;49.154;9.280;2023-06-10T04:45:05;99328.06;;;16.05;100.00
13080;BME280;6606;49.154;9.280;2023-06-10T04:47:48;99319.31;;;16.03;100.00
13080;BME280;6606;49.154;9.280;2023-06-10T04:50:29;99327.59;;;16.11;100.00
13080;BME280;6606;49.154;9.280;2023-06-10T04:53:13;99324.78;;;16.24;100.00
13080;BME280;6606;49.154;9.280;2023-06-10T04:56:00;99330.03;;;16.37;100.00
13080;BME280;6606;49.154;9.280;2023-06-10T04:58:42;99327.84;;;16.42;100.00
13080;BME280;6606;49.154;9.280;2023-06-10T05:01:24;99335.09;;;16.51;100.00
13080;BME280;6606;49.154;9.280;2023-06-10T05:04:06;99335.34;;;16.48;100.00
13080;BME280;6606;49.154;9.280;2023-06-10T05:06:47;99333.88;;;16.66;100.00
13080;BME280;6606;49.154;9.280;2023-06-10T05:09:29;99338.59;;;16.85;100.00
13080;BME280;6606;49.154;9.280;2023-06-10T05:12:12;99337.97;;;17.04;100.00
13080;BME280;6606;49.154;9.280;2023-06-10T05:14:54;99337.78;;;17.17;100.00
13080;BME280;6606;49.154;9.280;2023-06-10T05:17:36;99337.97;;;17.36;100.00
13080;BME280;6606;49.154;9.280;2023-06-10T05:20:18;99340.47;;;17.49;100.00
13080;BME280;6606;49.154;9.280;2023-06-10T05:23:00;99334.84;;;17.52;100.00
13080;BME280;6606;49.154;9.280;2023-06-10T05:25:41;99334.06;;;17.62;100.00
13080;BME280;6606;49.154;9.280;2023-06-10T05:28:24;99341.56;;;17.79;100.00
13080;BME280;6606;49.154;9.280;2023-06-10T05:31:06;99335.84;;;17.93;100.00
13080;BME280;6606;49.154;9.280;2023-06-10T05:33:48;99342.38;;;18.00;100.00
13080;BME280;6606;49.154;9.280;2023-06-10T05:36:30;99344.03;;;18.22;100.00
13080;BME280;6606;49.154;9.280;2023-06-10T05:39:12;99344.25;;;18.40;100.00
13080;BME280;6606;49.154;9.280;2023-06-10T05:41:54;99340.63;;;18.51;100.00
13080;BME280;6606;49.154;9.280;2023-06-10T05:44:37;99338.88;;;18.71;100.00
13080;BME280;6606;49.154;9.280;2023-06-10T05:47:19;99343.72;;;18.97;100.00
13080;BME280;6606;49.154;9.280;2023-06-10T05:50:01;99339.09;;;19.08;100.00
13080;BME280;6606;49.154;9.280;2023-06-10T05:52:42;99348.84;;;19.29;100.00
13080;BME280;6606;49.154;9.280;2023-06-10T05:55:24;99352.41;;;19.49;100.00
13080;BME280;6606;49.154;9.280;2023-06-10T05:58:06;99359.06;;;19.64;100.00
13080;BME280;6606;49.154;9.280;2023-06-10T06:00:49;99349.59;;;19.80;100.00
13080;BME280;6606;49.154;9.280;2023-06-10T06:03:30;99355.44;;;20.12;100.00
13080;BME280;6606;49.154;9.280;2023-06-10T06:06:12;99352.06;;;20.10;100.00
13080;BME280;6606;49.154;9.280;2023-06-10T06:08:54;99348.34;;;20.21;100.00
13080;BME280;6606;49.154;9.280;2023-06-10T06:11:36;99347.88;;;20.35;100.00
13080;BME280;6606;49.154;9.280;2023-06-10T06:14:17;99348.81;;;20.54;100.00
13080;BME280;6606;49.154;9.280;2023-06-10T06:17:00;99350.56;;;20.73;100.00
13080;BME280;6606;49.154;9.280;2023-06-10T06:19:42;99343.59;;;20.80;100.00
13080;BME280;6606;49.154;9.280;2023-06-10T06:22:24;99347.44;;;20.95;100.00
13080;BME280;6606;49.154;9.280;2023-06-10T06:25:06;99337.22;;;20.99;100.00
13080;BME280;6606;49.154;9.280;2023-06-10T06:27:48;99345.94;;;21.11;100.00
13080;BME280;6606;49.154;9.280;2023-06-10T06:30:29;99351.78;;;21.24;100.00
13080;BME280;6606;49.154;9.280;2023-06-10T06:33:13;99353.25;;;21.36;100.00
13080;BME280;6606;49.154;9.280;2023-06-10T06:35:55;99343.72;;;21.42;100.00
13080;BME280;6606;49.154;9.280;2023-06-10T06:38:37;99346.75;;;21.57;100.00
13080;BME280;6606;49.154;9.280;2023-06-10T06:41:18;99343.47;;;21.71;100.00
13080;BME280;6606;49.154;9.280;2023-06-10T06:44:02;99342.53;;;21.80;100.00
13080;BME280;6606;49.154;9.280;2023-06-10T06:46:44;99345.81;;;21.92;100.00
13080;BME280;6606;49.154;9.280;2023-06-10T06:49:27;99346.16;;;22.15;100.00
13080;BME280;6606;49.154;9.280;2023-06-10T06:52:12;99352.06;;;21.92;100.00
13080;BME280;6606;49.154;9.280;2023-06-10T06:54:53;99352.84;;;22.29;100.00
13080;BME280;6606;49.154;9.280;2023-06-10T06:57:35;99354.09;;;22.43;100.00
13080;BME280;6606;49.154;9.280;2023-06-10T07:00:18;99354.75;;;23.54;100.00
13080;BME280;6606;49.154;9.280;2023-06-10T07:03:00;99352.16;;;26.58;98.81
13080;BME280;6606;49.154;9.280;2023-06-10T07:05:43;99337.00;;;29.45;73.82
13080;BME280;6606;49.154;9.280;2023-06-10T07:08:25;99345.66;;;31.45;57.02
13080;BME280;6606;49.154;9.280;2023-06-10T07:11:06;99333.00;;;32.45;50.30
13080;BME280;6606;49.154;9.280;2023-06-10T07:13:48;99333.75;;;32.89;47.01
13080;BME280;6606;49.154;9.280;2023-06-10T07:16:30;99336.28;;;34.04;42.10
13080;BME280;6606;49.154;9.280;2023-06-10T07:19:12;99331.81;;;33.68;43.62
13080;BME280;6606;49.154;9.280;2023-06-10T07:21:55;99337.81;;;34.71;41.12
13080;BME280;6606;49.154;9.280;2023-06-10T07:24:37;99331.25;;;34.48;39.53
13080;BME280;6606;49.154;9.280;2023-06-10T07:27:18;99341.31;;;34.31;40.80
13080;BME280;6606;49.154;9.280;2023-06-10T07:30:00;99336.91;;;34.18;40.29
13080;BME280;6606;49.154;9.280;2023-06-10T07:32:42;99338.91;;;34.70;37.08
13080;BME280;6606;49.154;9.280;2023-06-10T07:35:24;99335.53;;;35.99;37.34
13080;BME280;6606;49.154;9.280;2023-06-10T07:38:07;99336.78;;;36.25;36.30
13080;BME280;6606;49.154;9.280;2023-06-10T07:40:49;99328.03;;;35.32;36.16
13080;BME280;6606;49.154;9.280;2023-06-10T07:43:31;99320.38;;;34.42;36.67
13080;BME280;6606;49.154;9.280;2023-06-10T07:46:12;99318.50;;;35.69;35.42
13080;BME280;6606;49.154;9.280;2023-06-10T07:48:54;99320.50;;;34.23;36.85
13080;BME280;6606;49.154;9.280;2023-06-10T07:51:36;99326.69;;;35.63;36.50
13080;BME280;6606;49.154;9.280;2023-06-10T07:54:19;99324.06;;;34.47;36.61
13080;BME280;6606;49.154;9.280;2023-06-10T07:57:01;99320.09;;;33.00;39.57
13080;BME280;6606;49.154;9.280;2023-06-10T07:59:43;99313.09;;;34.24;38.45
13080;BME280;6606;49.154;9.280;2023-06-10T08:02:25;99322.81;;;35.64;35.48
13080;BME280;6606;49.154;9.280;2023-06-10T08:05:07;99337.81;;;36.58;34.49
13080;BME280;6606;49.154;9.280;2023-06-10T08:07:49;99331.50;;;34.23;36.80
13080;BME280;6606;49.154;9.280;2023-06-10T08:10:32;99320.00;;;33.91;37.08
13080;BME280;6606;49.154;9.280;2023-06-10T08:13:14;99327.00;;;35.67;34.02
13080;BME280;6606;49.154;9.280;2023-06-10T08:15:55;99323.19;;;35.68;34.35
13080;BME280;6606;49.154;9.280;2023-06-10T08:18:37;99322.72;;;36.27;35.02
13080;BME280;6606;49.154;9.280;2023-06-10T08:21:19;99319.69;;;37.11;32.84
13080;BME280;6606;49.154;9.280;2023-06-10T08:24:00;99315.38;;;37.48;32.15
13080;BME280;6606;49.154;9.280;2023-06-10T08:26:43;99316.38;;;35.13;34.96
13080;BME280;6606;49.154;9.280;2023-06-10T08:29:25;99311.38;;;34.70;36.03
13080;BME280;6606;49.154;9.280;2023-06-10T08:32:07;99305.13;;;35.15;34.91
13080;BME280;6606;49.154;9.280;2023-06-10T08:34:49;99311.63;;;35.71;34.96
13080;BME280;6606;49.154;9.280;2023-06-10T08:37:31;99313.47;;;35.82;34.55
13080;BME280;6606;49.154;9.280;2023-06-10T08:40:13;99309.84;;;35.99;34.36
13080;BME280;6606;49.154;9.280;2023-06-10T08:43:02;99310.09;;;35.47;36.19
13080;BME280;6606;49.154;9.280;2023-06-10T08:45:48;99300.94;;;35.58;34.44
13080;BME280;6606;49.154;9.280;2023-06-10T08:48:30;99304.63;;;35.18;34.65
13080;BME280;6606;49.154;9.280;2023-06-10T08:51:15;99316.41;;;34.61;36.39
13080;BME280;6606;49.154;9.280;2023-06-10T08:54:01;99313.00;;;33.53;37.99
13080;BME280;6606;49.154;9.280;2023-06-10T08:56:43;99310.56;;;32.11;42.23
13080;BME280;6606;49.154;9.280;2023-06-10T08:59:28;99302.53;;;30.37;48.83
13080;BME280;6606;49.154;9.280;2023-06-10T09:02:10;99304.94;;;29.67;56.40
13080;BME280;6606;49.154;9.280;2023-06-10T09:04:53;99301.69;;;29.17;60.85
13080;BME280;6606;49.154;9.280;2023-06-10T09:07:37;99298.44;;;28.93;64.84
13080;BME280;6606;49.154;9.280;2023-06-10T09:10:20;99291.56;;;29.04;61.17
13080;BME280;6606;49.154;9.280;2023-06-10T09:13:01;99305.25;;;29.11;62.65
13080;BME280;6606;49.154;9.280;2023-06-10T09:15:45;99291.69;;;28.83;65.26
13080;BME280;6606;49.154;9.280;2023-06-10T09:18:28;99292.78;;;28.47;66.23
13080;BME280;6606;49.154;9.280;2023-06-10T09:21:09;99292.84;;;28.54;62.08
13080;BME280;6606;49.154;9.280;2023-06-10T09:23:51;99282.44;;;28.84;64.70
13080;BME280;6606;49.154;9.280;2023-06-10T09:26:34;99282.00;;;28.67;66.29
13080;BME280;6606;49.154;9.280;2023-06-10T09:29:18;99283.72;;;28.81;64.03
13080;BME280;6606;49.154;9.280;2023-06-10T09:32:02;99273.75;;;28.60;62.74
13080;BME280;6606;49.154;9.280;2023-06-10T09:34:44;99272.00;;;28.87;59.87
13080;BME280;6606;49.154;9.280;2023-06-10T09:37:26;99272.06;;;29.07;61.18
13080;BME280;6606;49.154;9.280;2023-06-10T09:40:08;99265.19;;;28.63;63.61
13080;BME280;6606;49.154;9.280;2023-06-10T09:42:53;99270.41;;;29.40;55.00
13080;BME280;6606;49.154;9.280;2023-06-10T09:45:36;99263.31;;;29.65;51.88
13080;BME280;6606;49.154;9.280;2023-06-10T09:48:19;99266.19;;;29.17;62.19
13080;BME280;6606;49.154;9.280;2023-06-10T09:51:01;99266.00;;;29.32;57.16
13080;BME280;6606;49.154;9.280;2023-06-10T09:53:42;99266.41;;;29.09;64.82
13080;BME280;6606;49.154;9.280;2023-06-10T09:56:33;99268.94;;;29.37;54.61
13080;BME280;6606;49.154;9.280;2023-06-10T09:59:15;99256.59;;;29.68;55.04
13080;BME280;6606;49.154;9.280;2023-06-10T10:01:57;99261.63;;;29.64;57.59
13080;BME280;6606;49.154;9.280;2023-06-10T10:04:42;99266.00;;;29.45;54.71
13080;BME280;6606;49.154;9.280;2023-06-10T10:07:23;99253.19;;;29.92;50.50
13080;BME280;6606;49.154;9.280;2023-06-10T10:10:06;99257.44;;;30.53;44.91
13080;BME280;6606;49.154;9.280;2023-06-10T10:12:53;99255.06;;;30.70;47.60
13080;BME280;6606;49.154;9.280;2023-06-10T10:15:36;99251.50;;;29.18;52.96
13080;BME280;6606;49.154;9.280;2023-06-10T10:18:24;99255.28;;;29.57;52.99
13080;BME280;6606;49.154;9.280;2023-06-10T10:21:13;99252.75;;;29.15;54.52
13080;BME280;6606;49.154;9.280;2023-06-10T10:24:02;99252.41;;;28.64;52.94
13080;BME280;6606;49.154;9.280;2023-06-10T10:26:46;99247.94;;;29.24;52.96
13080;BME280;6606;49.154;9.280;2023-06-10T10:29:31;99246.09;;;29.65;48.62
13080;BME280;6606;49.154;9.280;2023-06-10T10:32:15;99243.47;;;30.10;47.96
13080;BME280;6606;49.154;9.280;2023-06-10T10:35:03;99246.00;;;29.98;47.14
13080;BME280;6606;49.154;9.280;2023-06-10T10:37:51;99249.72;;;30.43;44.78
13080;BME280;6606;49.154;9.280;2023-06-10T10:40:33;99230.22;;;30.13;46.33
13080;BME280;6606;49.154;9.280;2023-06-10T10:43:16;99238.28;;;29.35;48.27
13080;BME280;6606;49.154;9.280;2023-06-10T10:45:59;99234.69;;;29.61;48.78
13080;BME280;6606;49.154;9.280;2023-06-10T10:48:41;99245.63;;;29.88;51.68
13080;BME280;6606;49.154;9.280;2023-06-10T10:51:24;99238.31;;;29.75;50.60
13080;BME280;6606;49.154;9.280;2023-06-10T10:54:13;99245.00;;;29.86;48.02
13080;BME280;6606;49.154;9.280;2023-06-10T10:57:15;99235.16;;;29.65;50.86
13080;BME280;6606;49.154;9.280;2023-06-10T10:59:58;99229.34;;;30.78;45.27
13080;BME280;6606;49.154;9.280;2023-06-10T11:02:44;99238.50;;;31.28;44.05
13080;BME280;6606;49.154;9.280;2023-06-10T11:05:37;99231.63;;;31.94;42.71
13080;BME280;6606;49.154;9.280;2023-06-10T11:08:46;99239.88;;;30.81;45.63
13080;BME280;6606;49.154;9.280;2023-06-10T11:11:30;99231.56;;;31.26;42.11
13080;BME280;6606;49.154;9.280;2023-06-10T11:14:26;99228.78;;;30.04;43.96
13080;BME280;6606;49.154;9.280;2023-06-10T11:17:18;99209.84;;;30.09;41.68
13080;BME280;6606;49.154;9.280;2023-06-10T11:20:00;99221.84;;;30.60;41.03
13080;BME280;6606;49.154;9.280;2023-06-10T11:22:59;99220.44;;;31.21;39.71
13080;BME280;6606;49.154;9.280;2023-06-10T11:25:42;99217.06;;;31.50;40.52
13080;BME280;6606;49.154;9.280;2023-06-10T11:28:27;99218.97;;;31.93;38.73
13080;BME280;6606;49.154;9.280;2023-06-10T11:31:18;99211.75;;;31.56;38.78
13080;BME280;6606;49.154;9.280;2023-06-10T11:34:02;99220.63;;;31.76;38.57
13080;BME280;6606;49.154;9.280;2023-06-10T11:36:45;99214.72;;;32.16;40.61
13080;BME280;6606;49.154;9.280;2023-06-10T11:39:26;99206.38;;;31.42;39.51
13080;BME280;6606;49.154;9.280;2023-06-10T11:42:10;99207.34;;;31.54;37.85
13080;BME280;6606;49.154;9.280;2023-06-10T11:44:54;99215.00;;;31.89;38.42
13080;BME280;6606;49.154;9.280;2023-06-10T11:47:36;99205.94;;;30.88;39.87
13080;BME280;6606;49.154;9.280;2023-06-10T11:50:27;99200.31;;;30.32;41.37
13080;BME280;6606;49.154;9.280;2023-06-10T11:53:09;99208.66;;;30.88;40.36
13080;BME280;6606;49.154;9.280;2023-06-10T11:55:51;99211.19;;;30.45;42.35
13080;BME280;6606;49.154;9.280;2023-06-10T11:58:34;99208.88;;;30.42;42.95
13080;BME280;6606;49.154;9.280;2023-06-10T12:01:20;99202.06;;;30.58;42.46
13080;BME280;6606;49.154;9.280;2023-06-10T12:04:05;99192.72;;;31.10;40.51
13080;BME280;6606;49.154;9.280;2023-06-10T12:06:48;99202.75;;;31.17;40.17
13080;BME280;6606;49.154;9.280;2023-06-10T12:09:30;99209.59;;;30.24;41.91
13080;BME280;6606;49.154;9.280;2023-06-10T12:12:13;99197.28;;;29.82;42.61
13080;BME280;6606;49.154;9.280;2023-06-10T12:14:56;99202.06;;;30.64;40.71
13080;BME280;6606;49.154;9.280;2023-06-10T12:17:39;99192.44;;;30.94;40.28
13080;BME280;6606;49.154;9.280;2023-06-10T12:20:25;99187.41;;;31.16;40.28
13080;BME280;6606;49.154;9.280;2023-06-10T12:23:09;99190.00;;;31.04;39.27
13080;BME280;6606;49.154;9.280;2023-06-10T12:25:52;99197.78;;;30.75;39.71
13080;BME280;6606;49.154;9.280;2023-06-10T12:28:34;99191.69;;;30.21;42.64
13080;BME280;6606;49.154;9.280;2023-06-10T12:31:16;99190.25;;;30.26;42.25
13080;BME280;6606;49.154;9.280;2023-06-10T12:34:08;99183.72;;;31.53;39.51
13080;BME280;6606;49.154;9.280;2023-06-10T12:36:50;99188.00;;;32.11;37.93
13080;BME280;6606;49.154;9.280;2023-06-10T12:39:33;99193.53;;;32.23;39.25
13080;BME280;6606;49.154;9.280;2023-06-10T12:42:15;99178.94;;;32.11;36.67
13080;BME280;6606;49.154;9.280;2023-06-10T12:44:57;99181.53;;;31.62;39.08
13080;BME280;6606;49.154;9.280;2023-06-10T12:47:40;99190.13;;;31.47;38.75
13080;BME280;6606;49.154;9.280;2023-06-10T12:50:23;99192.25;;;30.88;40.50
13080;BME280;6606;49.154;9.280;2023-06-10T12:53:06;99190.16;;;31.41;39.20
13080;BME280;6606;49.154;9.280;2023-06-10T12:55:48;99187.75;;;31.51;38.67
13080;BME280;6606;49.154;9.280;2023-06-10T12:58:30;99175.53;;;32.46;37.74
13080;BME280;6606;49.154;9.280;2023-06-10T13:01:13;99184.28;;;32.54;37.19
13080;BME280;6606;49.154;9.280;2023-06-10T13:03:54;99198.16;;;31.42;38.76
13080;BME280;6606;49.154;9.280;2023-06-10T13:06:37;99185.91;;;30.88;38.48
13080;BME280;6606;49.154;9.280;2023-06-10T13:09:21;99174.03;;;30.31;40.61
13080;BME280;6606;49.154;9.280;2023-06-10T13:12:03;99185.03;;;30.04;42.09
13080;BME280;6606;49.154;9.280;2023-06-10T13:14:45;99183.84;;;30.77;41.98
13080;BME280;6606;49.154;9.280;2023-06-10T13:17:27;99186.63;;;31.33;40.36
13080;BME280;6606;49.154;9.280;2023-06-10T13:20:09;99177.13;;;31.36;39.09
13080;BME280;6606;49.154;9.280;2023-06-10T13:22:52;99184.56;;;30.20;40.82
13080;BME280;6606;49.154;9.280;2023-06-10T13:25:34;99174.69;;;30.64;39.53
13080;BME280;6606;49.154;9.280;2023-06-10T13:28:16;99170.97;;;31.66;39.21
13080;BME280;6606;49.154;9.280;2023-06-10T13:30:57;99163.09;;;32.13;37.13
13080;BME280;6606;49.154;9.280;2023-06-10T13:33:39;99156.97;;;32.48;35.72
13080;BME280;6606;49.154;9.280;2023-06-10T13:36:21;99165.72;;;32.19;35.52
13080;BME280;6606;49.154;9.280;2023-06-10T13:39:04;99160.72;;;32.16;37.82
13080;BME280;6606;49.154;9.280;2023-06-10T13:41:46;99162.44;;;31.74;37.54
13080;BME280;6606;49.154;9.280;2023-06-10T13:44:27;99152.78;;;31.90;37.63
13080;BME280;6606;49.154;9.280;2023-06-10T13:47:11;99163.66;;;31.78;38.92
13080;BME280;6606;49.154;9.280;2023-06-10T13:49:52;99160.66;;;32.05;36.12
13080;BME280;6606;49.154;9.280;2023-06-10T13:52:34;99160.19;;;32.26;37.50
13080;BME280;6606;49.154;9.280;2023-06-10T13:55:17;99156.81;;;31.87;37.76
13080;BME280;6606;49.154;9.280;2023-06-10T13:58:00;99147.56;;;30.56;40.79
13080;BME280;6606;49.154;9.280;2023-06-10T14:00:42;99166.41;;;31.09;40.15
13080;BME280;6606;49.154;9.280;2023-06-10T14:03:24;99153.72;;;31.40;39.78
13080;BME280;6606;49.154;9.280;2023-06-10T14:06:06;99151.13;;;31.70;37.71
13080;BME280;6606;49.154;9.280;2023-06-10T14:08:47;99146.00;;;31.74;38.14
13080;BME280;6606;49.154;9.280;2023-06-10T14:11:30;99140.16;;;31.89;37.40
13080;BME280;6606;49.154;9.280;2023-06-10T14:14:13;99145.09;;;32.17;36.96
13080;BME280;6606;49.154;9.280;2023-06-10T14:16:55;99139.59;;;31.80;37.16
13080;BME280;6606;49.154;9.280;2023-06-10T14:19:37;99139.91;;;31.90;36.27
13080;BME280;6606;49.154;9.280;2023-06-10T14:22:20;99134.13;;;31.98;35.91
13080;BME280;6606;49.154;9.280;2023-06-10T14:25:02;99133.19;;;32.23;34.77
13080;BME280;6606;49.154;9.280;2023-06-10T14:27:46;99123.84;;;32.61;35.28
13080;BME280;6606;49.154;9.280;2023-06-10T14:30:27;99124.47;;;32.75;35.32